Last 7 Days

Suisun Valley (SSV)

Hourly Data | America/Los_Angeles
as of 2/19/19 12:43 PM PST
Date Time Temp (°F) RH (%) Dew Pt (°F) Wind Spd (mph) Wind Dir (°) Wind Gust (mph) Wind Gst Dir (°) Latest Rain (In) Solar Rad Tot Hr (Cal/cm2) Daily Rain (In) Daily Min Temp (°F) Daily Max Temp (°F) Day
2/19/19 1100 53.0 36 26.6 4.5 NNW | 348 9.0 N | 354 0.00 65 0.00 35.4 54.4 2/19/19
2/19/19 1000 49.9 40 26.3 7.7 NNW | 347 12.1 NNW | 346 0.00 49 0.00 35.4 51.5 2/19/19
2/19/19 0900 46.2 44 25.7 7.0 NNW | 347 12.0 NNW | 348 0.00 30 0.00 35.4 48.4 2/19/19
2/19/19 0800 38.9 59 25.7 1.4 N | 350 3.4 N | 9 0.00 9 0.00 35.4 42.8 2/19/19
2/19/19 0700 38.1 57 24.2 0.8 NNE | 15 3.8 N | 1 0.00 0 0.00 35.4 42.8 2/19/19
2/19/19 0600 39.8 55 24.9 6.5 N | 353 9.8 N | 4 0.00 0 0.00 35.4 42.8 2/19/19
2/19/19 0500 38.4 60 25.8 6.4 NNW | 341 9.3 NNW | 344 0.00 0 0.00 35.4 42.8 2/19/19
2/19/19 0400 37.4 65 26.8 6.0 NNW | 348 8.8 NNW | 341 0.00 0 0.00 35.4 42.8 2/19/19
2/19/19 0300 38.7 63 27.3 6.1 NNW | 347 9.8 NNW | 348 0.00 0 0.00 35.4 42.8 2/19/19
2/19/19 0200 37.1 70 28.1 5.3 NNW | 332 8.1 N | 353 0.00 0 0.00 35.4 42.8 2/19/19
2/19/19 0100 37.8 68 28.0 4.7 NW | 312 8.1 WNW | 298 0.00 0 0.00 36.3 42.8 2/19/19
2/19/19 0000 38.3 66 27.9 4.8 NNW | 334 10.8 N | 0 0.00 0 0.00 34.3 56.1 2/18/19
2/18/19 2300 39.5 61 27.2 3.8 NW | 314 6.9 NW | 320 0.00 0 0.00 34.3 56.1 2/18/19
2/18/19 2200 38.2 69 28.9 2.2 NW | 318 5.9 WNW | 301 0.00 0 0.00 34.3 56.1 2/18/19
2/18/19 2100 38.1 72 30.0 4.9 NW | 314 7.6 WNW | 301 0.00 0 0.00 34.3 56.1 2/18/19
2/18/19 2000 39.4 70 30.5 2.7 WNW | 299 6.1 NNW | 331 0.00 0 0.00 34.3 56.1 2/18/19
2/18/19 1900 44.0 57 29.7 1.2 WNW | 282 3.4 WNW | 290 0.00 0 0.00 34.3 56.1 2/18/19
2/18/19 1800 50.7 38 25.9 4.0 NNW | 338 13.0 N | 353 0.00 5 0.00 34.3 56.1 2/18/19
2/18/19 1700 54.1 31 24.2 10.0 NNW | 344 16.0 N | 1 0.00 26 0.00 34.3 56.1 2/18/19
2/18/19 1600 55.0 31 25.1 11.3 NNW | 346 17.8 N | 349 0.00 47 0.00 34.3 56.1 2/18/19
2/18/19 1500 55.4 32 25.8 11.2 NNW | 342 18.7 NNW | 331 0.00 63 0.00 34.3 56.1 2/18/19
2/18/19 1400 55.2 31 25.2 11.8 NNW | 343 18.7 NNW | 330 0.00 74 0.00 34.3 55.5 2/18/19
2/18/19 1300 54.4 33 25.9 10.9 NNW | 343 18.5 NNW | 336 0.00 78 0.00 34.3 55.3 2/18/19
2/18/19 1200 52.7 35 26.0 12.4 NNW | 347 20.4 NNW | 342 0.00 75 0.00 34.3 53.8 2/18/19
2/18/19 1100 50.9 36 25.2 13.3 NNW | 348 20.4 NNW | 342 0.00 65 0.00 34.3 51.9 2/18/19
2/18/19 1000 49.0 38 24.5 13.9 N | 353 21.0 NNW | 339 0.00 49 0.00 34.3 50.0 2/18/19
2/18/19 0900 46.2 44 25.2 9.7 N | 356 18.8 NNW | 342 0.00 30 0.00 34.3 47.8 2/18/19
2/18/19 0800 40.2 55 25.2 1.4 S | 180 5.6 SSW | 209 0.00 9 0.00 34.3 44.0 2/18/19
2/18/19 0700 40.0 52 23.6 1.8 SSE | 154 5.9 W | 261 0.00 0 0.00 34.3 41.8 2/18/19
2/18/19 0600 40.1 53 24.5 1.6 SSW | 199 5.3 WSW | 241 0.00 0 0.00 34.3 41.6 2/18/19
2/18/19 0500 39.3 57 25.2 1.3 SW | 232 5.4 SW | 216 0.00 0 0.00 34.3 41.4 2/18/19
2/18/19 0400 38.2 62 26.2 1.4 SSW | 194 5.4 SW | 223 0.00 0 0.00 34.3 41.4 2/18/19
2/18/19 0300 38.7 64 27.4 2.0 SW | 221 6.8 SW | 230 0.00 0 0.00 34.3 41.4 2/18/19
2/18/19 0200 35.6 81 30.3 1.2 SW | 228 4.3 S | 173 0.00 0 0.00 34.3 36.9 2/18/19
2/18/19 0100 35.8 86 32.0 1.2 SW | 228 3.9 WSW | 246 0.00 0 0.00 35.1 36.9 2/18/19
2/18/19 0000 35.2 92 33.1 1.0 SSW | 210 4.6 NNW | 327 0.00 0 0.08 34.5 54.3 2/17/19
2/17/19 2300 36.1 91 33.7 1.2 SW | 235 5.1 W | 261 0.00 0 0.08 35.0 54.3 2/17/19
2/17/19 2200 38.7 85 34.6 1.7 NNW | 342 4.6 NNE | 23 0.00 0 0.08 35.8 54.3 2/17/19
2/17/19 2100 41.0 81 35.7 3.5 NNW | 333 12.6 NNE | 21 0.00 0 0.08 35.8 54.3 2/17/19
2/17/19 2000 39.4 90 36.8 2.3 N | 356 6.1 NNE | 21 0.00 0 0.08 35.8 54.3 2/17/19
2/17/19 1900 40.9 90 38.1 3.6 N | 352 7.1 N | 353 0.00 0 0.08 35.8 54.3 2/17/19
2/17/19 1800 44.1 80 38.5 2.3 N | 5 7.1 NE | 38 0.00 1 0.08 35.8 54.3 2/17/19
2/17/19 1700 47.3 73 39.0 2.7 NNW | 345 8.4 N | 3 0.01 5 0.08 35.8 54.3 2/17/19
2/17/19 1600 48.9 70 39.8 4.6 NNE | 31 9.5 NE | 42 0.00 25 0.07 35.8 54.3 2/17/19
2/17/19 1500 49.8 68 39.6 4.6 E | 94 8.4 E | 97 0.01 25 0.07 35.8 54.3 2/17/19
2/17/19 1400 50.9 61 37.8 5.5 ESE | 108 9.5 E | 99 0.02 21 0.06 35.8 54.3 2/17/19
2/17/19 1300 52.7 53 35.8 2.9 NNW | 344 9.5 ESE | 111 0.00 60 0.04 35.8 54.3 2/17/19
2/17/19 1200 51.3 53 34.7 2.9 N | 356 9.1 NNE | 13 0.00 76 0.04 35.8 52.7 2/17/19
2/17/19 1100 48.6 65 37.4 3.8 N | 357 10.3 NNW | 340 0.00 64 0.04 35.8 49.8 2/17/19
2/17/19 1000 45.7 74 38.0 2.8 W | 265 8.1 NNW | 336 0.00 47 0.04 35.8 46.9 2/17/19
2/17/19 0900 43.6 83 38.8 1.7 NNW | 329 6.8 NNW | 341 0.00 28 0.04 35.8 44.6 2/17/19
2/17/19 0800 37.2 96 36.2 0.6 NNW | 348 3.1 NE | 47 0.00 7 0.04 35.8 43.6 2/17/19
2/17/19 0700 38.4 94 36.9 2.0 SW | 234 6.1 W | 262 0.00 0 0.04 36.8 43.6 2/17/19
2/17/19 0600 39.5 94 38.0 2.6 NNE | 13 5.6 W | 274 0.00 0 0.04 38.2 43.6 2/17/19
2/17/19 0500 39.2 92 37.1 1.5 SSW | 209 4.1 SW | 220 0.00 0 0.04 38.2 43.6 2/17/19
2/17/19 0400 41.3 87 37.6 4.1 SW | 236 11.0 WNW | 282 0.04 0 0.04 40.5 43.6 2/17/19
2/17/19 0300 42.1 80 36.3 2.0 SE | 130 4.8 ENE | 68 0.00 0 0.00 41.3 43.6 2/17/19
2/17/19 0200 42.4 76 35.4 2.1 S | 184 5.9 SSE | 165 0.00 0 0.00 41.7 43.6 2/17/19
2/17/19 0100 42.7 73 34.6 3.2 SSW | 212 7.1 SW | 216 0.00 0 0.00 41.7 43.6 2/17/19
2/17/19 0000 42.7 73 34.7 3.4 NW | 309 15.3 WNW | 283 0.00 0 0.12 39.4 54.8 2/16/19
2/16/19 2300 43.2 72 35.0 4.3 NW | 315 11.8 N | 353 0.00 0 0.12 39.4 54.8 2/16/19
2/16/19 2200 44.1 71 35.4 9.2 WNW | 299 17.0 WNW | 294 0.00 0 0.12 39.4 54.8 2/16/19
2/16/19 2100 45.5 69 35.8 13.0 WNW | 298 21.4 W | 262 0.00 0 0.12 39.4 54.8 2/16/19
2/16/19 2000 46.8 67 36.6 12.4 W | 281 22.7 WNW | 283 0.00 0 0.12 39.4 54.8 2/16/19
2/16/19 1900 48.0 62 35.7 8.3 WNW | 290 16.2 W | 262 0.00 0 0.12 39.4 54.8 2/16/19
2/16/19 1800 49.5 58 35.4 8.0 WNW | 296 15.3 WNW | 289 0.00 3 0.12 39.4 54.8 2/16/19
2/16/19 1700 51.4 62 39.0 5.3 W | 278 17.7 WNW | 292 0.00 21 0.12 39.4 54.8 2/16/19
2/16/19 1600 49.8 72 41.0 8.7 W | 260 15.0 W | 268 0.00 45 0.12 39.4 54.8 2/16/19
2/16/19 1500 49.1 75 41.5 8.3 W | 260 19.5 WSW | 257 0.05 42 0.12 39.4 54.8 2/16/19
2/16/19 1400 51.2 68 40.9 8.9 WNW | 287 18.3 W | 281 0.02 50 0.07 39.4 54.8 2/16/19
2/16/19 1300 53.5 58 39.0 11.8 W | 264 21.2 WSW | 256 0.00 58 0.05 39.4 54.8 2/16/19
2/16/19 1200 52.8 59 39.0 11.9 W | 267 25.9 SW | 235 0.00 75 0.05 39.4 53.9 2/16/19
2/16/19 1100 50.4 68 40.1 8.7 WNW | 285 18.5 NW | 311 0.00 50 0.05 39.4 52.0 2/16/19
2/16/19 1000 48.2 74 40.4 4.9 W | 270 16.2 WNW | 283 0.00 29 0.05 39.4 50.1 2/16/19
2/16/19 0900 46.5 81 41.0 3.4 WSW | 239 11.1 WSW | 241 0.00 18 0.05 39.4 47.3 2/16/19
2/16/19 0800 42.6 93 40.7 3.2 WSW | 245 7.4 WSW | 252 0.00 8 0.05 39.4 45.1 2/16/19
2/16/19 0700 40.7 96 39.7 1.6 SSW | 213 5.9 SW | 233 0.00 0 0.05 39.5 43.2 2/16/19
2/16/19 0600 41.9 97 41.2 2.5 S | 169 7.6 SE | 145 0.00 0 0.05 40.0 43.2 2/16/19
2/16/19 0500 40.8 98 40.2 1.5 SE | 131 3.6 SE | 145 0.00 0 0.05 40.0 43.2 2/16/19
2/16/19 0400 40.3 97 39.6 0.6 NNW | 327 4.3 NNW | 335 0.01 0 0.05 40.0 43.2 2/16/19
2/16/19 0300 41.2 97 40.4 1.3 NNW | 328 3.4 NNW | 329 0.00 0 0.04 40.6 43.2 2/16/19
2/16/19 0200 42.8 97 42.0 1.1 NNW | 328 3.9 NNW | 333 0.00 0 0.04 42.0 43.2 2/16/19
2/16/19 0100 43.0 97 42.1 0.8 N | 352 4.1 NW | 305 0.04 0 0.04 42.8 43.2 2/16/19
2/16/19 0000 42.6 96 41.6 1.5 N | 9 3.9 SSW | 193 0.01 0 0.34 40.6 53.4 2/15/19
2/15/19 2300 41.2 96 40.1 2.9 NNW | 339 5.6 NNW | 347 0.05 0 0.33 40.6 53.4 2/15/19
2/15/19 2200 41.2 93 39.4 1.4 NNW | 331 4.8 NNW | 336 0.00 0 0.28 40.6 53.4 2/15/19
2/15/19 2100 42.6 90 39.8 1.3 WSW | 251 4.8 WNW | 283 0.01 0 0.28 41.7 53.4 2/15/19
2/15/19 2000 43.9 87 40.3 1.5 SW | 225 3.3 SW | 226 0.00 0 0.27 42.4 53.4 2/15/19
2/15/19 1900 46.1 84 41.4 1.7 SW | 216 3.8 SW | 236 0.00 0 0.27 43.5 53.4 2/15/19
2/15/19 1800 47.8 78 41.4 3.1 NW | 306 9.8 WSW | 243 0.00 2 0.27 43.5 53.4 2/15/19
2/15/19 1700 48.2 73 40.1 3.7 SSW | 207 12.6 SSW | 204 0.00 11 0.27 43.5 53.4 2/15/19
2/15/19 1600 47.8 72 39.2 6.0 SSW | 211 14.8 SSW | 199 0.00 23 0.27 43.5 53.4 2/15/19
2/15/19 1500 50.3 69 40.3 7.7 SW | 230 16.5 SW | 220 0.01 35 0.27 43.5 53.4 2/15/19
2/15/19 1400 50.3 71 41.2 5.9 W | 262 15.7 SW | 233 0.00 71 0.26 43.5 52.5 2/15/19
2/15/19 1300 46.9 80 41.1 6.9 WSW | 255 18.7 W | 268 0.04 37 0.26 43.5 50.1 2/15/19
2/15/19 1200 46.5 82 41.2 7.6 WNW | 283 20.5 W | 272 0.05 31 0.22 43.5 50.1 2/15/19
2/15/19 1100 45.4 84 40.7 5.6 SW | 219 14.3 WSW | 240 0.06 32 0.17 43.9 50.1 2/15/19
2/15/19 1000 48.1 76 40.8 7.3 SW | 222 21.7 W | 273 0.03 20 0.11 43.9 50.1 2/15/19
2/15/19 0900 48.0 69 38.2 7.1 SSW | 210 15.0 SSW | 208 0.00 12 0.08 43.9 48.7 2/15/19
2/15/19 0800 45.5 80 39.6 2.9 SSW | 200 7.8 SW | 215 0.00 4 0.08 43.9 47.8 2/15/19
2/15/19 0700 45.0 77 38.4 2.8 SW | 228 7.3 SW | 228 0.00 0 0.08 44.2 47.8 2/15/19
2/15/19 0600 46.8 76 39.8 5.9 WSW | 241 11.3 SW | 223 0.00 0 0.08 45.2 47.8 2/15/19
2/15/19 0500 46.7 78 40.2 7.0 SW | 218 18.0 SW | 218 0.00 0 0.08 45.2 47.8 2/15/19
2/15/19 0400 45.8 81 40.4 7.8 SW | 236 14.8 WSW | 257 0.01 0 0.08 45.2 47.8 2/15/19
2/15/19 0300 46.9 80 41.1 9.4 WSW | 245 20.9 W | 266 0.04 0 0.07 45.6 47.8 2/15/19
2/15/19 0200 47.4 79 41.3 7.7 SW | 231 16.5 SSW | 212 0.00 0 0.03 47.0 47.8 2/15/19
2/15/19 0100 47.2 87 43.4 6.4 SW | 222 13.6 SW | 232 0.03 0 0.03 47.0 47.5 2/15/19
2/15/19 0000 47.8 88 44.2 7.7 WSW | 240 14.5 SW | 231 0.01 0 1.43 47.4 60.7 2/14/19
2/14/19 2300 48.1 93 46.3 6.6 SW | 218 11.8 S | 179 0.10 0 1.42 47.5 60.7 2/14/19
2/14/19 2200 49.9 82 44.5 9.2 SSW | 208 18.3 W | 274 0.26 0 1.32 47.5 60.7 2/14/19
2/14/19 2100 51.6 72 42.9 7.6 S | 190 15.7 S | 189 0.00 0 1.06 49.1 60.7 2/14/19
2/14/19 2000 50.0 75 42.6 5.5 S | 190 13.5 SW | 228 0.00 0 1.06 49.1 60.7 2/14/19
2/14/19 1900 51.1 74 43.3 6.0 SSW | 202 14.6 SSW | 209 0.00 0 1.06 49.5 60.7 2/14/19
2/14/19 1800 52.7 70 43.3 7.3 SW | 214 16.7 SW | 222 0.00 2 1.06 50.7 60.7 2/14/19
2/14/19 1700 54.1 66 43.0 9.0 SW | 224 21.0 SSW | 205 0.00 16 1.06 50.7 60.7 2/14/19
2/14/19 1600 54.8 71 45.7 9.0 SW | 226 21.2 SW | 224 0.00 27 1.06 50.7 60.7 2/14/19
2/14/19 1500 55.9 70 46.3 9.8 WSW | 244 26.7 WSW | 257 0.00 43 1.06 50.7 60.7 2/14/19
2/14/19 1400 54.8 81 48.9 8.8 SW | 230 17.2 WSW | 249 0.00 50 1.06 50.7 60.7 2/14/19
2/14/19 1300 52.6 86 48.4 5.1 SW | 227 17.8 WSW | 242 0.01 41 1.06 50.7 60.7 2/14/19
2/14/19 1200 51.1 88 47.7 7.4 WSW | 252 19.2 WSW | 240 0.09 9 1.05 50.7 60.7 2/14/19
2/14/19 1100 52.6 90 49.8 8.3 WSW | 239 15.3 WSW | 244 0.07 16 0.96 52.2 60.7 2/14/19
2/14/19 1000 54.0 86 50.1 11.2 SW | 217 18.2 SW | 217 0.06 16 0.89 52.5 60.7 2/14/19
2/14/19 0900 54.9 87 51.2 11.9 SW | 226 19.5 SSW | 209 0.00 25 0.83 54.4 60.7 2/14/19
2/14/19 0800 55.0 88 51.5 10.7 SW | 235 19.7 SW | 219 0.00 5 0.83 54.6 60.7 2/14/19
2/14/19 0700 56.4 90 53.6 9.0 WSW | 237 20.7 NW | 307 0.02 0 0.83 55.0 60.7 2/14/19
2/14/19 0600 60.4 95 58.8 12.2 SSW | 192 22.5 SW | 236 0.01 0 0.81 55.6 60.7 2/14/19
2/14/19 0500 59.5 97 58.8 5.8 SSE | 158 13.0 S | 181 0.04 0 0.80 55.6 60.5 2/14/19
2/14/19 0400 59.1 98 58.5 8.0 SSE | 165 15.2 SSE | 154 0.05 0 0.76 55.6 59.9 2/14/19
2/14/19 0300 56.6 98 56.0 2.5 SW | 224 8.1 SE | 139 0.14 0 0.71 55.6 57.5 2/14/19
2/14/19 0200 56.0 98 55.4 2.1 NE | 37 7.6 NNW | 330 0.43 0 0.57 55.6 56.4 2/14/19
2/14/19 0100 56.1 98 55.5 0.9 W | 267 4.8 WNW | 290 0.14 0 0.14 55.6 56.4 2/14/19
2/14/19 0000 54.5 98 53.9 0.8 NW | 306 4.1 N | 354 0.12 0 2.73 43.6 55.6 2/13/19
2/13/19 2300 53.7 98 53.1 1.3 NW | 322 4.4 NNW | 343 0.04 0 2.61 43.6 54.0 2/13/19
2/13/19 2200 53.2 98 52.6 0.5 WNW | 291 2.2 WNW | 287 0.05 0 2.57 43.6 53.4 2/13/19
2/13/19 2100 53.0 98 52.4 1.6 WSW | 249 6.6 NNW | 335 0.15 0 2.52 43.6 53.3 2/13/19
2/13/19 2000 52.4 98 51.8 3.0 SW | 218 6.4 SW | 225 0.26 0 2.37 43.6 53.1 2/13/19
2/13/19 1900 51.6 98 51.0 0.8 NNW | 332 2.9 N | 350 0.14 0 2.11 43.6 51.9 2/13/19
2/13/19 1800 51.5 98 50.8 1.9 NNW | 343 4.4 N | 9 0.06 0 1.97 43.6 51.9 2/13/19
2/13/19 1700 51.6 97 50.9 2.7 N | 354 4.9 NNW | 345 0.03 2 1.91 43.6 51.9 2/13/19
2/13/19 1600 51.3 97 50.6 3.7 NNW | 331 7.4 NNW | 327 0.10 5 1.88 43.6 51.8 2/13/19
2/13/19 1500 50.3 97 49.4 4.0 N | 352 7.4 N | 0 0.14 4 1.78 43.6 50.8 2/13/19
2/13/19 1400 49.3 96 48.3 3.5 N | 360 9.0 NNW | 346 0.11 5 1.64 43.6 49.9 2/13/19
2/13/19 1300 47.9 95 46.7 3.3 N | 352 8.1 NNW | 347 0.03 3 1.53 43.6 48.2 2/13/19
2/13/19 1200 47.6 96 46.4 3.0 E | 95 8.4 ESE | 102 0.12 2 1.50 43.6 47.8 2/13/19
2/13/19 1100 47.2 96 46.0 4.8 ESE | 114 13.0 ESE | 122 0.09 3 1.38 43.6 47.5 2/13/19
2/13/19 1000 46.5 96 45.4 4.0 ESE | 117 11.0 E | 86 0.19 2 1.29 43.6 47.3 2/13/19
2/13/19 0900 46.0 93 44.2 6.7 E | 88 15.3 E | 98 0.24 1 1.10 43.6 47.3 2/13/19
2/13/19 0800 46.9 89 43.7 5.3 NE | 52 13.0 NE | 50 0.19 0 0.86 43.6 47.3 2/13/19
2/13/19 0700 46.0 95 44.5 5.3 N | 2 9.8 NNW | 332 0.16 0 0.67 43.6 46.2 2/13/19
2/13/19 0600 45.8 95 44.5 8.8 NNW | 346 13.8 NNW | 344 0.25 0 0.51 43.6 46.1 2/13/19
2/13/19 0500 45.3 95 44.0 5.8 NNW | 344 10.5 NW | 318 0.09 0 0.26 43.6 45.6 2/13/19
2/13/19 0400 45.1 94 43.5 3.8 NNW | 342 6.3 NW | 320 0.05 0 0.17 43.6 45.2 2/13/19
2/13/19 0300 44.6 94 43.1 4.3 NNW | 344 7.6 NW | 322 0.04 0 0.12 43.6 45.2 2/13/19
2/13/19 0200 44.5 93 42.5 2.9 N | 10 5.8 NNW | 344 0.06 0 0.08 43.6 44.7 2/13/19
2/13/19 0100 44.2 93 42.2 1.9 NE | 40 6.8 E | 88 0.02 0 0.02 43.6 44.6 2/13/19
2/13/19 0000 43.2 94 41.7 1.5 NNW | 337 5.1 NNW | 343 0.10 0 0.26 35.6 46.9 2/12/19
2/12/19 2300 42.9 92 40.7 1.6 WSW | 257 4.8 W | 267 0.10 0 0.16 35.6 46.9 2/12/19
2/12/19 2200 44.1 81 38.7 3.3 WSW | 237 8.6 SW | 226 0.06 0 0.06 35.6 46.9 2/12/19
2/12/19 2100 44.4 79 38.3 2.8 S | 182 8.4 SSW | 203 0.00 0 0.00 35.6 46.9 2/12/19
2/12/19 2000 43.5 83 38.7 3.0 NNW | 346 8.6 NNW | 340 0.00 0 0.00 35.6 46.9 2/12/19
2/12/19 1900 44.2 78 37.9 1.3 N | 359 4.6 N | 0 0.00 0 0.00 35.6 46.9 2/12/19
2/12/19 1800 45.0 75 37.4 1.6 W | 259 4.8 NW | 304 0.00 0 0.00 35.6 46.9 2/12/19
2/12/19 1700 46.3 67 35.9 1.5 S | 184 6.8 SSW | 212 0.00 3 0.00 35.6 46.9 2/12/19
2/12/19 1600 46.1 68 36.0 4.4 ESE | 103 10.6 ENE | 61 0.00 6 0.00 35.6 46.4 2/12/19
2/12/19 1500 45.2 71 36.4 3.1 E | 82 8.1 NE | 48 0.00 9 0.00 35.6 45.9 2/12/19
2/12/19 1400 44.8 73 36.8 4.6 ESE | 120 11.1 ENE | 69 0.00 12 0.00 35.6 44.9 2/12/19
2/12/19 1300 44.5 73 36.4 2.0 ESE | 120 6.1 E | 93 0.00 10 0.00 35.6 44.8 2/12/19
Tip: Bookmark this page for easy future reference